Flight Track Log - Related Links

Times and Time Zones

All times are in EDT time to prevent confusion due to time zone crossing. See the SWA709 flight status page for this flight to view local times or setup timezone preferences in your user account.

Time Position Orientation Groundspeed Altitude Reporting Facility
EDT Latitude Longitude Course Direction KTS MPH feet Rate Location/Type
Wed 10:47:32 AM 36.1072 -115.1525 270° West 163 188 3,500  Level Los Angeles Center
Wed 10:48:02 AM 36.1247 -115.1733 316° Northwest 195 224 4,300 2,703 Climbing Los Angeles Center
Wed 10:49:03 AM 36.1033 -115.2444 250° West 243 280 7,600 3,443 Climbing Los Angeles Center
Wed 10:50:04 AM 36.0314 -115.2706 196° South 252 290 11,300 2,758 Climbing Los Angeles Center
Wed 10:51:07 AM 35.9436 -115.2964 193° South 299 344 13,300 2,400 Climbing Los Angeles Center
Wed 10:52:09 AM 35.9222 -115.4097 257° West 344 396 16,300 2,758 Climbing Los Angeles Center
Wed 10:53:00 AM 35.8834 -115.6940 270° West  Level FlightAware Approximate
Wed 10:53:11 AM 35.9164 -115.5419 267° West 373 429 19,000  Level Los Angeles Center
Wed 10:54:13 AM 35.9086 -115.6850 266° West 406 467 22,100 2,878 Climbing Los Angeles Center
Wed 10:55:14 AM 35.9578 -115.8100 296° West 415 478 24,900 2,683 Climbing Los Angeles Center
Wed 10:56:16 AM 36.0372 -115.9319 309° West 420 483 27,600 2,806 Climbing Los Angeles Center
Wed 10:57:18 AM 36.1103 -116.0433 309° West 419 482 30,700 2,129 Climbing Los Angeles Center
Wed 10:58:20 AM 36.1822 -116.1519 309° West 409 471 32,000 629 Climbing Los Angeles Center
Wed 10:59:22 AM 36.2533 -116.2622 309° West 422 486 32,000  Level Los Angeles Center
Wed 11:00:24 AM 36.3269 -116.3758 309° West 424 488 32,000  Level Los Angeles Center
Wed 11:01:25 AM 36.3867 -116.5333 295° West 424 488 32,000  Level Los Angeles Center
Wed 11:02:27 AM 36.4194 -116.6739 286° West 422 486 32,000  Level Los Angeles Center
Wed 11:03:29 AM 36.4519 -116.8164 286° West 429 494 32,000  Level Los Angeles Center
Wed 11:04:31 AM 36.4858 -116.9592 286° West 431 496 32,000  Level Los Angeles Center
Wed 11:05:33 AM 36.5181 -117.1011 286° West 430 495 32,000  Level Los Angeles Center
Wed 11:06:35 AM 36.5453 -117.2178 286° West 428 493 32,000  Level Los Angeles Center
Wed 11:07:37 AM 36.5892 -117.4125 286° West 429 494 32,000  Level Los Angeles Center
Wed 11:08:39 AM 36.6214 -117.5556 286° West 430 495 32,000  Level Los Angeles Center
Wed 11:09:41 AM 36.6528 -117.6953 286° West 426 490 32,000  Level Los Angeles Center
Wed 11:10:43 AM 36.6839 -117.8356 285° West 424 488 32,000  Level Los Angeles Center
Wed 11:11:45 AM 36.7153 -117.9764 286° West 424 488 32,000  Level Los Angeles Center
Wed 11:12:47 AM 36.7528 -118.1469 285° West 426 490 32,000  Level Los Angeles Center
Wed 11:13:49 AM 36.7828 -118.2828 285° West 428 493 32,000  Level Los Angeles Center
Wed 11:14:52 AM 36.8128 -118.4278 285° West 431 496 32,000  Level Los Angeles Center
Wed 11:15:23 AM 36.8331 -118.5211 285° West 434 499 32,000  Level Oakland Center
Wed 11:16:24 AM 36.8642 -118.6661 285° West 435 501 32,000  Level Oakland Center
Wed 11:17:26 AM 36.8947 -118.8097 285° West 431 496 32,000 -49 Level Oakland Center
Wed 11:18:27 AM 36.9250 -118.9572 284° West 436 502 31,900 -541 Descending Oakland Center
Wed 11:19:28 AM 36.9558 -119.1022 285° West 434 499 30,900 -976 Descending Oakland Center
Wed 11:20:30 AM 36.9867 -119.2481 285° West 437 503 29,900 -976 Descending Oakland Center
Wed 11:21:31 AM 37.0172 -119.3956 285° West 440 506 28,900 -984 Descending Oakland Center
Wed 11:22:32 AM 37.0472 -119.5444 284° West 439 505 27,900 -1,024 Descending Oakland Center
Wed 11:23:34 AM 37.0764 -119.6889 284° West 431 496 26,800 -1,073 Descending Oakland Center
Wed 11:24:35 AM 37.1106 -119.8553 284° West 424 488 25,700 -1,033 Descending Oakland Center
Wed 11:25:36 AM 37.1392 -119.9989 284° West 422 486 24,700 -1,024 Descending Oakland Center
Wed 11:26:38 AM 37.1678 -120.1403 284° West 418 481 23,600 -1,463 Descending Oakland Center
Wed 11:27:39 AM 37.1944 -120.2775 284° West 405 466 21,700 -2,380 Descending Oakland Center
Wed 11:28:39 AM 37.2167 -120.4167 281° West 393 452 18,800 -1,950 Descending Northern Cal TRACON
Wed 11:29:39 AM 37.1833 -120.5500 253° West 442 509 17,800 -950 Descending Northern Cal TRACON
Wed 11:30:39 AM 37.1667 -120.6833 261° West 377 434 16,900 -1,000 Descending Northern Cal TRACON
Wed 11:31:39 AM 37.1333 -120.8167 253° West 376 433 15,800 -1,053 Descending Northern Cal TRACON
Wed 11:32:33 AM 37.1000 -120.9333 250° West 378 435 14,900 -1,737 Descending Northern Cal TRACON
Wed 11:33:33 AM 37.1000 -121.0500 270° West 376 433 12,500 -2,368 Descending Northern Cal TRACON
Wed 11:34:27 AM 37.0833 -121.1667 260° West 371 427 10,400 -1,974 Descending Northern Cal TRACON
Wed 11:34:49 AM 37.0831 -121.2050 269° West 373 429 10,000 -506 Descending Oakland Center
Wed 11:35:50 AM 37.0717 -121.3189 263° West 346 398 9,700 -927 Descending Oakland Center
Wed 11:36:52 AM 37.0644 -121.4197 265° West 305 351 8,100 -1,317 Descending Oakland Center
Wed 11:37:53 AM 37.0925 -121.5142 290° West 288 331 7,000 -1,377 Descending Oakland Center
Wed 11:38:54 AM 37.1253 -121.6072 294° West 292 336 5,300 -976 Descending Oakland Center
Wed 11:39:56 AM 37.1550 -121.6928 294° West 279 321 5,000 -488 Descending Oakland Center
Wed 11:40:57 AM 37.1900 -121.7478 309° West 233 268 4,300 -1,073 Descending Oakland Center
Wed 11:41:59 AM 37.2378 -121.7944 322° Northwest 198 228 2,800 -1,024 Descending Oakland Center
Wed 11:43:00 AM 37.2728 -121.8322 319° Northwest 180 207 2,200 -683 Descending Oakland Center
Wed 11:44:02 AM 37.3036 -121.8669 318° Northwest 164 189 1,400 -732 Descending Oakland Center
Wed 11:45:03 AM 37.3306 -121.8967 319° Northwest 146 168 700 9,148 Descending Oakland Center
Wed 11:46:04 AM 37.3561 -121.9244 319° Northwest 131 151 20,000 18,984 Climbing Oakland Center
Wed 11:48:00 AM 37.3500 -121.9167 North  Level FlightAware Approximate

Login

Don't have an account? Register now (free) for customized features, flight alerts, and more!